This is the latest recevied weather packets stored in our database for station/object N7TUG-8. If no packets are shown the sender has not sent any weather packets the latest 10 day(s).
| Time | Temp. | Humidity | Pressure | Rain* | Wind** | Luminosity | Snow |
|---|---|---|---|---|---|---|---|
| 1778186436 | 16.67° C | 68% | 1019.3 hPa | 0 mm | 1.79 m/s, 247° | - | - |
| 1778185537 | 16.11° C | 69% | 1019.5 hPa | 0 mm | 1.79 m/s, 246° | - | - |
| 1778185501 | 16.11° C | 69% | 1019.6 hPa | 0 mm | 1.79 m/s, 270° | - | - |
| 1778184711 | 16.67° C | 68% | 1019.6 hPa | 0 mm | 1.34 m/s, 271° | - | - |
| 1778183885 | 16.11° C | 70% | 1019.7 hPa | 0 mm | 1.79 m/s, 287° | - | - |
| 1778183837 | 16.11° C | 70% | 1019.7 hPa | 0 mm | 1.79 m/s, 287° | - | - |
| 1778183091 | 15° C | 71% | 1019.7 hPa | 0 mm | 2.24 m/s, 296° | - | - |
| 1778182307 | 15.56° C | 69% | 1019.7 hPa | 0 mm | 1.79 m/s, 288° | - | - |
| 1778182166 | 15.56° C | 67% | 1019.7 hPa | 0 mm | 2.24 m/s, 299° | - | - |
| 1778181381 | 17.78° C | 65% | 1019.7 hPa | 0 mm | 0.45 m/s, 264° | - | - |
| 1778180737 | 17.22° C | 65% | 1019.8 hPa | 0 mm | 0.89 m/s, 212° | - | - |
| 1778180591 | 17.78° C | 65% | 1019.8 hPa | 0 mm | 1.34 m/s, 211° | - | - |
| 1778179721 | 17.22° C | 66% | 1019.9 hPa | 0 mm | 1.34 m/s, 208° | - | - |
| 1778179017 | 18.33° C | 64% | 1020 hPa | 0 mm | 1.79 m/s, 194° | - | - |
| 1778178766 | 18.33° C | 64% | 1020 hPa | 0 mm | 1.34 m/s, 207° | - | - |
| 1778178147 | 18.33° C | 65% | 1020 hPa | 0 mm | 1.34 m/s, 204° | - | - |
| 1778177981 | 18.33° C | 66% | 1020 hPa | 0 mm | 0.89 m/s, 231° | - | - |
| 1778177297 | 16.11° C | 72% | 1020 hPa | 0 mm | 1.34 m/s, 288° | - | - |
| 1778177170 | 16.11° C | 72% | 1020 hPa | 0 mm | 1.34 m/s, 288° | - | - |
| 1778176477 | 17.22° C | 68% | 1020.2 hPa | 0 mm | 1.34 m/s, 254° | - | - |
| 1778176336 | 17.22° C | 68% | 1020.2 hPa | 0 mm | 1.34 m/s, 254° | - | - |
| 1778175496 | 17.22° C | 70% | 1020.3 hPa | 0 mm | 0.89 m/s, 215° | - | - |
| 1778174666 | 16.67° C | 71% | 1020.3 hPa | 0 mm | 1.34 m/s, 153° | - | - |
| 1778173726 | 13.89° C | 76% | 1020.3 hPa | 0 mm | 2.24 m/s, 127° | - | - |
| 1778173291 | 13.89° C | 76% | 1020.2 hPa | 0 mm | 2.68 m/s, 124° | - | - |
* Rain latest hour (hover to see other rain measurements)
** Current wind speed in m/s (hover to see current wind gust speed)